Eshbach, Pennsylvania
Current Conditions -  °F | °C
As of 9:24 PM on Sunday 25 Jan 2015 (Local Time) from KPTW Reporting Station
Light Snow Light Snow  
Wind Chill: 30°   Ceiling: 2800
Heat Index: 35°   Visibility: 6mi
Dew Point: 29°   Wind: 6mph
Humidity: 78%   Direction: 40°NE
Pressure: 29.94"   Gusts: NA
Location:  40.3927°N, 75.6313°W
Report Text: KPTW 260224Z AUTO 04005KT 6SM -SN BKN028 OVC035 02/M02 A2994 RMK AO2 UPB01E13SNB15 P0000 T00171017
Loading
Personal Weather Stations






























Interactive Weather Map New forecast layout! Learn more

10-Day Weather Forecast

Advertisements
Track Severe Weather on mobile